sensor_id;sensor_type;location;lat;lon;timestamp;temperature;humidity
12335;DHT22;6233;51.560;9.986;2023-04-24T00:02:03;12.10;99.90
12335;DHT22;6233;51.560;9.986;2023-04-24T00:05:05;12.10;99.90
12335;DHT22;6233;51.560;9.986;2023-04-24T00:08:07;12.10;99.90
12335;DHT22;6233;51.560;9.986;2023-04-24T00:11:09;12.10;99.90
12335;DHT22;6233;51.560;9.986;2023-04-24T00:14:11;12.10;99.90
12335;DHT22;6233;51.560;9.986;2023-04-24T00:17:12;12.10;99.90
12335;DHT22;6233;51.560;9.986;2023-04-24T00:20:14;12.00;99.90
12335;DHT22;6233;51.560;9.986;2023-04-24T00:23:16;12.00;99.90
12335;DHT22;6233;51.560;9.986;2023-04-24T00:26:18;12.00;99.90
12335;DHT22;6233;51.560;9.986;2023-04-24T00:29:19;11.90;99.90
12335;DHT22;6233;51.560;9.986;2023-04-24T00:32:21;11.90;99.90
12335;DHT22;6233;51.560;9.986;2023-04-24T00:35:23;11.80;99.90
12335;DHT22;6233;51.560;9.986;2023-04-24T00:38:25;11.80;99.90
12335;DHT22;6233;51.560;9.986;2023-04-24T00:41:26;11.70;99.90
12335;DHT22;6233;51.560;9.986;2023-04-24T00:44:28;11.60;99.90
12335;DHT22;6233;51.560;9.986;2023-04-24T00:47:30;11.60;99.90
12335;DHT22;6233;51.560;9.986;2023-04-24T00:50:35;11.60;99.90
12335;DHT22;6233;51.560;9.986;2023-04-24T00:53:37;11.60;99.90
12335;DHT22;6233;51.560;9.986;2023-04-24T00:56:39;11.50;99.90
12335;DHT22;6233;51.560;9.986;2023-04-24T00:59:42;11.50;99.90
12335;DHT22;6233;51.560;9.986;2023-04-24T01:02:44;11.50;99.90
12335;DHT22;6233;51.560;9.986;2023-04-24T01:05:48;11.40;99.90
12335;DHT22;6233;51.560;9.986;2023-04-24T01:08:50;11.40;99.90
12335;DHT22;6233;51.560;9.986;2023-04-24T01:11:52;11.30;99.90
12335;DHT22;6233;51.560;9.986;2023-04-24T01:14:54;11.30;99.90
12335;DHT22;6233;51.560;9.986;2023-04-24T01:17:58;11.30;99.90
12335;DHT22;6233;51.560;9.986;2023-04-24T01:21:02;11.20;99.90
12335;DHT22;6233;51.560;9.986;2023-04-24T01:24:06;11.20;99.90
12335;DHT22;6233;51.560;9.986;2023-04-24T01:27:09;11.20;99.90
12335;DHT22;6233;51.560;9.986;2023-04-24T01:30:11;11.30;99.90
12335;DHT22;6233;51.560;9.986;2023-04-24T01:33:14;11.20;99.90
12335;DHT22;6233;51.560;9.986;2023-04-24T01:36:16;11.20;99.90
12335;DHT22;6233;51.560;9.986;2023-04-24T01:39:18;11.10;99.90
12335;DHT22;6233;51.560;9.986;2023-04-24T01:42:22;11.10;99.90
12335;DHT22;6233;51.560;9.986;2023-04-24T01:45:24;11.10;99.90
12335;DHT22;6233;51.560;9.986;2023-04-24T01:48:25;11.10;99.90
12335;DHT22;6233;51.560;9.986;2023-04-24T01:51:27;11.10;99.90
12335;DHT22;6233;51.560;9.986;2023-04-24T01:54:29;11.10;99.90
12335;DHT22;6233;51.560;9.986;2023-04-24T01:57:31;11.10;99.90
12335;DHT22;6233;51.560;9.986;2023-04-24T02:00:33;11.00;99.90
12335;DHT22;6233;51.560;9.986;2023-04-24T02:03:35;11.00;99.90
12335;DHT22;6233;51.560;9.986;2023-04-24T02:06:37;11.00;99.90
12335;DHT22;6233;51.560;9.986;2023-04-24T02:09:38;10.90;99.90
12335;DHT22;6233;51.560;9.986;2023-04-24T02:12:40;10.90;99.90
12335;DHT22;6233;51.560;9.986;2023-04-24T02:15:42;10.90;99.90
12335;DHT22;6233;51.560;9.986;2023-04-24T02:18:44;10.90;99.90
12335;DHT22;6233;51.560;9.986;2023-04-24T02:21:45;10.80;99.90
12335;DHT22;6233;51.560;9.986;2023-04-24T02:24:47;10.80;99.90
12335;DHT22;6233;51.560;9.986;2023-04-24T02:27:49;10.80;99.90
12335;DHT22;6233;51.560;9.986;2023-04-24T02:30:51;10.80;99.90
12335;DHT22;6233;51.560;9.986;2023-04-24T02:33:53;10.80;99.90
12335;DHT22;6233;51.560;9.986;2023-04-24T02:36:54;10.70;99.90
12335;DHT22;6233;51.560;9.986;2023-04-24T02:39:58;10.70;99.90
12335;DHT22;6233;51.560;9.986;2023-04-24T02:43:00;10.70;99.90
12335;DHT22;6233;51.560;9.986;2023-04-24T02:46:01;10.70;99.90
12335;DHT22;6233;51.560;9.986;2023-04-24T02:49:04;10.60;99.90
12335;DHT22;6233;51.560;9.986;2023-04-24T02:52:06;10.60;99.90
12335;DHT22;6233;51.560;9.986;2023-04-24T02:55:08;10.60;99.90
12335;DHT22;6233;51.560;9.986;2023-04-24T02:58:09;10.60;99.90
12335;DHT22;6233;51.560;9.986;2023-04-24T03:01:12;10.60;99.90
12335;DHT22;6233;51.560;9.986;2023-04-24T03:04:13;10.70;99.90
12335;DHT22;6233;51.560;9.986;2023-04-24T03:07:17;10.70;99.90
12335;DHT22;6233;51.560;9.986;2023-04-24T03:10:22;10.70;99.90
12335;DHT22;6233;51.560;9.986;2023-04-24T03:13:26;10.60;99.90
12335;DHT22;6233;51.560;9.986;2023-04-24T03:16:28;10.60;99.90
12335;DHT22;6233;51.560;9.986;2023-04-24T03:19:30;10.60;99.90
12335;DHT22;6233;51.560;9.986;2023-04-24T03:22:32;10.60;99.90
12335;DHT22;6233;51.560;9.986;2023-04-24T03:25:35;10.60;99.90
12335;DHT22;6233;51.560;9.986;2023-04-24T03:28:37;10.50;99.90
12335;DHT22;6233;51.560;9.986;2023-04-24T03:31:38;10.50;99.90
12335;DHT22;6233;51.560;9.986;2023-04-24T03:34:40;10.50;99.90
12335;DHT22;6233;51.560;9.986;2023-04-24T03:37:42;10.50;99.90
12335;DHT22;6233;51.560;9.986;2023-04-24T03:40:43;10.50;99.90
12335;DHT22;6233;51.560;9.986;2023-04-24T03:43:45;10.60;99.90
12335;DHT22;6233;51.560;9.986;2023-04-24T03:46:47;10.50;99.90
12335;DHT22;6233;51.560;9.986;2023-04-24T03:49:48;10.50;99.90
12335;DHT22;6233;51.560;9.986;2023-04-24T03:52:50;10.60;99.90
12335;DHT22;6233;51.560;9.986;2023-04-24T03:55:53;10.60;99.90
12335;DHT22;6233;51.560;9.986;2023-04-24T03:58:54;10.60;99.90
12335;DHT22;6233;51.560;9.986;2023-04-24T04:01:56;10.60;99.90
12335;DHT22;6233;51.560;9.986;2023-04-24T04:04:58;10.60;99.90
12335;DHT22;6233;51.560;9.986;2023-04-24T04:08:00;10.60;99.90
12335;DHT22;6233;51.560;9.986;2023-04-24T04:11:02;10.60;99.90
12335;DHT22;6233;51.560;9.986;2023-04-24T04:14:06;10.50;99.90
12335;DHT22;6233;51.560;9.986;2023-04-24T04:17:07;10.50;99.90
12335;DHT22;6233;51.560;9.986;2023-04-24T04:20:09;10.50;99.90
12335;DHT22;6233;51.560;9.986;2023-04-24T04:23:12;10.60;99.90
12335;DHT22;6233;51.560;9.986;2023-04-24T04:26:14;10.60;99.90
12335;DHT22;6233;51.560;9.986;2023-04-24T04:29:15;10.60;99.90
12335;DHT22;6233;51.560;9.986;2023-04-24T04:32:19;10.60;99.90
12335;DHT22;6233;51.560;9.986;2023-04-24T04:35:21;10.60;99.90
12335;DHT22;6233;51.560;9.986;2023-04-24T04:38:23;10.60;99.90
12335;DHT22;6233;51.560;9.986;2023-04-24T04:41:25;10.60;99.90
12335;DHT22;6233;51.560;9.986;2023-04-24T04:44:27;10.60;99.90
12335;DHT22;6233;51.560;9.986;2023-04-24T04:47:31;10.60;99.90
12335;DHT22;6233;51.560;9.986;2023-04-24T04:50:34;10.50;99.90
12335;DHT22;6233;51.560;9.986;2023-04-24T04:53:36;10.60;99.90
12335;DHT22;6233;51.560;9.986;2023-04-24T04:56:37;10.50;99.90
12335;DHT22;6233;51.560;9.986;2023-04-24T04:59:39;10.50;99.90
12335;DHT22;6233;51.560;9.986;2023-04-24T05:02:43;10.60;99.90
12335;DHT22;6233;51.560;9.986;2023-04-24T05:05:45;10.60;99.90
12335;DHT22;6233;51.560;9.986;2023-04-24T05:08:46;10.60;99.90
12335;DHT22;6233;51.560;9.986;2023-04-24T05:11:48;10.70;99.90
12335;DHT22;6233;51.560;9.986;2023-04-24T05:14:50;10.70;99.90
12335;DHT22;6233;51.560;9.986;2023-04-24T05:17:51;10.80;99.90
12335;DHT22;6233;51.560;9.986;2023-04-24T05:20:53;10.80;99.90
12335;DHT22;6233;51.560;9.986;2023-04-24T05:23:55;10.80;99.90
12335;DHT22;6233;51.560;9.986;2023-04-24T05:26:57;10.80;99.90
12335;DHT22;6233;51.560;9.986;2023-04-24T05:29:59;10.80;99.90
12335;DHT22;6233;51.560;9.986;2023-04-24T05:33:01;10.90;99.90
12335;DHT22;6233;51.560;9.986;2023-04-24T05:36:03;10.90;99.90
12335;DHT22;6233;51.560;9.986;2023-04-24T05:39:06;10.90;99.90
12335;DHT22;6233;51.560;9.986;2023-04-24T05:42:09;10.90;99.90
12335;DHT22;6233;51.560;9.986;2023-04-24T05:45:11;11.00;99.90
12335;DHT22;6233;51.560;9.986;2023-04-24T05:48:17;11.20;99.90
12335;DHT22;6233;51.560;9.986;2023-04-24T05:51:28;11.20;99.90
12335;DHT22;6233;51.560;9.986;2023-04-24T05:54:30;11.20;99.90
12335;DHT22;6233;51.560;9.986;2023-04-24T05:57:32;11.20;99.90
12335;DHT22;6233;51.560;9.986;2023-04-24T06:00:34;11.10;99.90
12335;DHT22;6233;51.560;9.986;2023-04-24T06:03:37;11.10;99.90
12335;DHT22;6233;51.560;9.986;2023-04-24T06:06:39;11.10;99.90
12335;DHT22;6233;51.560;9.986;2023-04-24T06:09:41;11.10;99.90
12335;DHT22;6233;51.560;9.986;2023-04-24T06:12:43;11.10;99.90
12335;DHT22;6233;51.560;9.986;2023-04-24T06:15:45;11.20;99.90
12335;DHT22;6233;51.560;9.986;2023-04-24T06:18:47;11.30;99.90
12335;DHT22;6233;51.560;9.986;2023-04-24T06:21:48;11.30;99.90
12335;DHT22;6233;51.560;9.986;2023-04-24T06:24:50;11.30;99.90
12335;DHT22;6233;51.560;9.986;2023-04-24T06:27:52;11.20;99.90
12335;DHT22;6233;51.560;9.986;2023-04-24T06:30:54;11.10;99.90
12335;DHT22;6233;51.560;9.986;2023-04-24T06:33:56;11.10;99.90
12335;DHT22;6233;51.560;9.986;2023-04-24T06:36:57;10.90;99.90
12335;DHT22;6233;51.560;9.986;2023-04-24T06:40:12;10.90;99.90
12335;DHT22;6233;51.560;9.986;2023-04-24T06:43:14;11.00;99.90
12335;DHT22;6233;51.560;9.986;2023-04-24T06:46:16;11.20;99.90
12335;DHT22;6233;51.560;9.986;2023-04-24T06:49:18;11.00;99.90
12335;DHT22;6233;51.560;9.986;2023-04-24T06:52:20;10.90;99.90
12335;DHT22;6233;51.560;9.986;2023-04-24T06:55:21;10.80;99.90
12335;DHT22;6233;51.560;9.986;2023-04-24T06:58:24;10.80;99.90
12335;DHT22;6233;51.560;9.986;2023-04-24T07:01:26;11.20;99.90
12335;DHT22;6233;51.560;9.986;2023-04-24T07:04:29;12.30;99.90
12335;DHT22;6233;51.560;9.986;2023-04-24T07:07:31;13.40;99.90
12335;DHT22;6233;51.560;9.986;2023-04-24T07:10:33;12.90;99.90
12335;DHT22;6233;51.560;9.986;2023-04-24T07:13:37;12.10;99.90
12335;DHT22;6233;51.560;9.986;2023-04-24T07:16:43;12.70;99.90
12335;DHT22;6233;51.560;9.986;2023-04-24T07:19:45;13.80;99.90
12335;DHT22;6233;51.560;9.986;2023-04-24T07:22:47;14.40;99.90
12335;DHT22;6233;51.560;9.986;2023-04-24T07:25:52;14.70;99.90
12335;DHT22;6233;51.560;9.986;2023-04-24T07:28:54;14.80;99.90
12335;DHT22;6233;51.560;9.986;2023-04-24T07:31:56;15.10;99.90
12335;DHT22;6233;51.560;9.986;2023-04-24T07:34:58;15.30;99.90
12335;DHT22;6233;51.560;9.986;2023-04-24T07:38:00;15.60;99.90
12335;DHT22;6233;51.560;9.986;2023-04-24T07:41:02;15.70;99.90
12335;DHT22;6233;51.560;9.986;2023-04-24T07:44:03;15.60;99.90
12335;DHT22;6233;51.560;9.986;2023-04-24T07:47:05;15.70;99.90
12335;DHT22;6233;51.560;9.986;2023-04-24T07:50:07;15.80;99.90
12335;DHT22;6233;51.560;9.986;2023-04-24T07:53:09;16.00;99.90
12335;DHT22;6233;51.560;9.986;2023-04-24T07:56:11;16.50;99.90
12335;DHT22;6233;51.560;9.986;2023-04-24T07:59:13;16.50;99.90
12335;DHT22;6233;51.560;9.986;2023-04-24T08:02:26;16.40;99.90
12335;DHT22;6233;51.560;9.986;2023-04-24T08:05:28;16.60;99.90
12335;DHT22;6233;51.560;9.986;2023-04-24T08:08:30;16.70;99.90
12335;DHT22;6233;51.560;9.986;2023-04-24T08:11:32;16.70;99.90
12335;DHT22;6233;51.560;9.986;2023-04-24T08:14:34;16.60;99.90
12335;DHT22;6233;51.560;9.986;2023-04-24T08:17:36;16.70;99.90
12335;DHT22;6233;51.560;9.986;2023-04-24T08:20:38;16.60;99.90
12335;DHT22;6233;51.560;9.986;2023-04-24T08:23:40;16.20;99.90
12335;DHT22;6233;51.560;9.986;2023-04-24T08:26:42;15.50;99.90
12335;DHT22;6233;51.560;9.986;2023-04-24T08:29:44;15.00;99.90
12335;DHT22;6233;51.560;9.986;2023-04-24T08:32:46;14.60;99.90
12335;DHT22;6233;51.560;9.986;2023-04-24T08:35:48;14.30;99.90
12335;DHT22;6233;51.560;9.986;2023-04-24T08:38:49;14.30;99.90
12335;DHT22;6233;51.560;9.986;2023-04-24T08:41:52;14.10;99.90
12335;DHT22;6233;51.560;9.986;2023-04-24T08:44:54;14.00;99.90
12335;DHT22;6233;51.560;9.986;2023-04-24T08:47:57;13.70;99.90
12335;DHT22;6233;51.560;9.986;2023-04-24T08:50:59;13.90;99.90
12335;DHT22;6233;51.560;9.986;2023-04-24T08:54:03;13.80;99.90
12335;DHT22;6233;51.560;9.986;2023-04-24T08:57:07;14.00;99.90
12335;DHT22;6233;51.560;9.986;2023-04-24T09:00:11;14.30;99.90
12335;DHT22;6233;51.560;9.986;2023-04-24T09:03:16;14.00;99.90
12335;DHT22;6233;51.560;9.986;2023-04-24T09:06:19;13.90;99.90
12335;DHT22;6233;51.560;9.986;2023-04-24T09:09:23;13.50;99.90
12335;DHT22;6233;51.560;9.986;2023-04-24T09:12:25;13.70;99.90
12335;DHT22;6233;51.560;9.986;2023-04-24T09:15:27;13.80;99.90
12335;DHT22;6233;51.560;9.986;2023-04-24T09:18:29;13.80;99.90
12335;DHT22;6233;51.560;9.986;2023-04-24T09:21:32;13.70;99.90
12335;DHT22;6233;51.560;9.986;2023-04-24T09:24:35;13.80;99.90
12335;DHT22;6233;51.560;9.986;2023-04-24T09:27:42;13.80;99.90
12335;DHT22;6233;51.560;9.986;2023-04-24T09:30:44;13.50;99.90
12335;DHT22;6233;51.560;9.986;2023-04-24T09:37:02;13.10;99.90
12335;DHT22;6233;51.560;9.986;2023-04-24T09:43:12;12.60;99.90
12335;DHT22;6233;51.560;9.986;2023-04-24T09:46:14;12.30;99.90
12335;DHT22;6233;51.560;9.986;2023-04-24T09:49:24;12.20;99.90
12335;DHT22;6233;51.560;9.986;2023-04-24T09:52:26;12.20;99.90
12335;DHT22;6233;51.560;9.986;2023-04-24T09:55:28;12.20;99.90
12335;DHT22;6233;51.560;9.986;2023-04-24T09:58:37;12.10;99.90
12335;DHT22;6233;51.560;9.986;2023-04-24T10:01:38;12.00;99.90
12335;DHT22;6233;51.560;9.986;2023-04-24T10:04:54;11.90;99.90
12335;DHT22;6233;51.560;9.986;2023-04-24T10:11:07;11.80;99.90
12335;DHT22;6233;51.560;9.986;2023-04-24T10:14:15;11.90;99.90
12335;DHT22;6233;51.560;9.986;2023-04-24T10:17:17;12.00;99.90
12335;DHT22;6233;51.560;9.986;2023-04-24T10:20:23;12.00;99.90
12335;DHT22;6233;51.560;9.986;2023-04-24T10:23:25;12.00;99.90
12335;DHT22;6233;51.560;9.986;2023-04-24T10:26:27;12.00;99.90
12335;DHT22;6233;51.560;9.986;2023-04-24T10:29:31;11.90;99.90
12335;DHT22;6233;51.560;9.986;2023-04-24T10:32:33;12.00;99.90
12335;DHT22;6233;51.560;9.986;2023-04-24T10:35:38;12.00;99.90
12335;DHT22;6233;51.560;9.986;2023-04-24T10:38:43;11.90;99.90
12335;DHT22;6233;51.560;9.986;2023-04-24T10:41:48;11.80;99.90
12335;DHT22;6233;51.560;9.986;2023-04-24T10:44:50;11.80;99.90
12335;DHT22;6233;51.560;9.986;2023-04-24T10:47:57;11.90;99.90
12335;DHT22;6233;51.560;9.986;2023-04-24T10:50:59;12.00;99.90
12335;DHT22;6233;51.560;9.986;2023-04-24T10:54:22;12.10;99.90
12335;DHT22;6233;51.560;9.986;2023-04-24T10:57:27;12.20;99.90
12335;DHT22;6233;51.560;9.986;2023-04-24T11:00:31;12.40;99.90
12335;DHT22;6233;51.560;9.986;2023-04-24T11:03:34;12.50;99.90
12335;DHT22;6233;51.560;9.986;2023-04-24T11:06:37;12.60;99.90
12335;DHT22;6233;51.560;9.986;2023-04-24T11:09:38;12.50;99.90
12335;DHT22;6233;51.560;9.986;2023-04-24T11:12:43;12.50;99.90
12335;DHT22;6233;51.560;9.986;2023-04-24T11:15:45;12.40;99.90
12335;DHT22;6233;51.560;9.986;2023-04-24T11:19:27;12.60;99.90
12335;DHT22;6233;51.560;9.986;2023-04-24T11:22:33;12.80;99.90
12335;DHT22;6233;51.560;9.986;2023-04-24T11:25:35;12.90;99.90
12335;DHT22;6233;51.560;9.986;2023-04-24T11:28:37;12.80;99.90
12335;DHT22;6233;51.560;9.986;2023-04-24T11:31:45;12.70;99.90
12335;DHT22;6233;51.560;9.986;2023-04-24T11:34:58;12.60;99.90
12335;DHT22;6233;51.560;9.986;2023-04-24T11:38:00;12.40;99.90
12335;DHT22;6233;51.560;9.986;2023-04-24T11:41:24;12.10;99.90
12335;DHT22;6233;51.560;9.986;2023-04-24T11:44:27;11.70;99.90
12335;DHT22;6233;51.560;9.986;2023-04-24T11:47:31;11.40;99.90
12335;DHT22;6233;51.560;9.986;2023-04-24T11:50:35;11.20;99.90
12335;DHT22;6233;51.560;9.986;2023-04-24T11:53:37;11.00;99.90
12335;DHT22;6233;51.560;9.986;2023-04-24T11:56:38;11.10;99.90
12335;DHT22;6233;51.560;9.986;2023-04-24T11:59:40;11.10;99.90
12335;DHT22;6233;51.560;9.986;2023-04-24T12:02:42;11.10;99.90
12335;DHT22;6233;51.560;9.986;2023-04-24T12:05:44;11.30;99.90
12335;DHT22;6233;51.560;9.986;2023-04-24T12:08:47;11.20;99.90
12335;DHT22;6233;51.560;9.986;2023-04-24T12:11:56;11.10;99.90
12335;DHT22;6233;51.560;9.986;2023-04-24T12:15:07;11.20;99.90
12335;DHT22;6233;51.560;9.986;2023-04-24T12:18:12;11.30;99.90
12335;DHT22;6233;51.560;9.986;2023-04-24T12:21:19;11.40;99.90
12335;DHT22;6233;51.560;9.986;2023-04-24T12:24:23;11.30;99.90
12335;DHT22;6233;51.560;9.986;2023-04-24T12:27:25;11.20;99.90
12335;DHT22;6233;51.560;9.986;2023-04-24T12:30:28;11.00;99.90
12335;DHT22;6233;51.560;9.986;2023-04-24T12:33:35;10.90;99.90
12335;DHT22;6233;51.560;9.986;2023-04-24T12:36:37;10.70;99.90
12335;DHT22;6233;51.560;9.986;2023-04-24T12:39:38;10.60;99.90
12335;DHT22;6233;51.560;9.986;2023-04-24T12:42:47;10.50;99.90
12335;DHT22;6233;51.560;9.986;2023-04-24T12:45:50;10.30;99.90
12335;DHT22;6233;51.560;9.986;2023-04-24T12:48:51;10.30;99.90
12335;DHT22;6233;51.560;9.986;2023-04-24T12:51:53;10.10;99.90
12335;DHT22;6233;51.560;9.986;2023-04-24T12:54:58;10.20;99.90
12335;DHT22;6233;51.560;9.986;2023-04-24T12:58:00;10.20;99.90
12335;DHT22;6233;51.560;9.986;2023-04-24T13:01:03;10.20;99.90
12335;DHT22;6233;51.560;9.986;2023-04-24T13:04:05;10.10;99.90
12335;DHT22;6233;51.560;9.986;2023-04-24T13:07:07;10.00;99.90
12335;DHT22;6233;51.560;9.986;2023-04-24T13:10:09;10.00;99.90
12335;DHT22;6233;51.560;9.986;2023-04-24T13:13:12;9.90;99.90
12335;DHT22;6233;51.560;9.986;2023-04-24T13:16:14;9.90;99.90
12335;DHT22;6233;51.560;9.986;2023-04-24T13:19:16;9.90;99.90
12335;DHT22;6233;51.560;9.986;2023-04-24T13:22:18;9.90;99.90
12335;DHT22;6233;51.560;9.986;2023-04-24T13:25:22;9.90;99.90
12335;DHT22;6233;51.560;9.986;2023-04-24T13:28:25;9.90;99.90
12335;DHT22;6233;51.560;9.986;2023-04-24T13:31:37;9.80;99.90
12335;DHT22;6233;51.560;9.986;2023-04-24T13:34:39;9.60;99.90
12335;DHT22;6233;51.560;9.986;2023-04-24T13:37:40;9.60;99.90
12335;DHT22;6233;51.560;9.986;2023-04-24T13:40:42;9.50;99.90
12335;DHT22;6233;51.560;9.986;2023-04-24T13:43:44;9.40;99.90
12335;DHT22;6233;51.560;9.986;2023-04-24T13:46:47;9.40;99.90
12335;DHT22;6233;51.560;9.986;2023-04-24T13:49:49;9.40;99.90
12335;DHT22;6233;51.560;9.986;2023-04-24T13:52:51;9.40;99.90
12335;DHT22;6233;51.560;9.986;2023-04-24T13:55:53;9.40;99.90
12335;DHT22;6233;51.560;9.986;2023-04-24T13:58:54;9.40;99.90
12335;DHT22;6233;51.560;9.986;2023-04-24T14:01:57;9.50;99.90
12335;DHT22;6233;51.560;9.986;2023-04-24T14:04:59;9.50;99.90
12335;DHT22;6233;51.560;9.986;2023-04-24T14:08:15;9.60;99.90
12335;DHT22;6233;51.560;9.986;2023-04-24T14:11:18;9.70;99.90
12335;DHT22;6233;51.560;9.986;2023-04-24T14:14:20;9.70;99.90
12335;DHT22;6233;51.560;9.986;2023-04-24T14:17:21;9.70;99.90
12335;DHT22;6233;51.560;9.986;2023-04-24T14:20:23;9.60;99.90
12335;DHT22;6233;51.560;9.986;2023-04-24T14:23:25;9.50;99.90
12335;DHT22;6233;51.560;9.986;2023-04-24T14:26:27;9.40;99.90
12335;DHT22;6233;51.560;9.986;2023-04-24T14:29:29;9.40;99.90
12335;DHT22;6233;51.560;9.986;2023-04-24T14:32:30;9.40;99.90
12335;DHT22;6233;51.560;9.986;2023-04-24T14:35:32;9.40;99.90
12335;DHT22;6233;51.560;9.986;2023-04-24T14:38:35;9.40;99.90
12335;DHT22;6233;51.560;9.986;2023-04-24T14:41:37;9.50;99.90
12335;DHT22;6233;51.560;9.986;2023-04-24T14:44:40;9.60;99.90
12335;DHT22;6233;51.560;9.986;2023-04-24T14:47:42;9.60;99.90
12335;DHT22;6233;51.560;9.986;2023-04-24T14:50:44;9.60;99.90
12335;DHT22;6233;51.560;9.986;2023-04-24T14:53:46;9.60;99.90
12335;DHT22;6233;51.560;9.986;2023-04-24T14:56:55;9.40;99.90
12335;DHT22;6233;51.560;9.986;2023-04-24T14:59:58;9.30;99.90
12335;DHT22;6233;51.560;9.986;2023-04-24T15:03:00;9.30;99.90
12335;DHT22;6233;51.560;9.986;2023-04-24T15:06:03;9.60;99.90
12335;DHT22;6233;51.560;9.986;2023-04-24T15:09:05;9.50;99.90
12335;DHT22;6233;51.560;9.986;2023-04-24T15:12:07;9.40;99.90
12335;DHT22;6233;51.560;9.986;2023-04-24T15:15:09;9.40;99.90
12335;DHT22;6233;51.560;9.986;2023-04-24T15:18:11;9.30;99.90
12335;DHT22;6233;51.560;9.986;2023-04-24T15:21:22;9.40;99.90
12335;DHT22;6233;51.560;9.986;2023-04-24T15:24:24;9.30;99.90
12335;DHT22;6233;51.560;9.986;2023-04-24T15:27:26;9.20;99.90
12335;DHT22;6233;51.560;9.986;2023-04-24T15:30:29;9.30;99.90
12335;DHT22;6233;51.560;9.986;2023-04-24T15:33:31;9.30;99.90
12335;DHT22;6233;51.560;9.986;2023-04-24T15:36:32;9.40;99.90
12335;DHT22;6233;51.560;9.986;2023-04-24T15:39:34;9.40;99.90
12335;DHT22;6233;51.560;9.986;2023-04-24T15:42:36;9.40;99.90
12335;DHT22;6233;51.560;9.986;2023-04-24T15:45:38;9.40;99.90
12335;DHT22;6233;51.560;9.986;2023-04-24T15:48:41;9.40;99.90
12335;DHT22;6233;51.560;9.986;2023-04-24T15:51:43;9.40;99.90
12335;DHT22;6233;51.560;9.986;2023-04-24T15:54:45;9.40;99.90
12335;DHT22;6233;51.560;9.986;2023-04-24T15:57:46;9.40;99.90
12335;DHT22;6233;51.560;9.986;2023-04-24T16:00:48;9.50;99.90
12335;DHT22;6233;51.560;9.986;2023-04-24T16:03:50;9.40;99.90
12335;DHT22;6233;51.560;9.986;2023-04-24T16:06:52;9.50;99.90
12335;DHT22;6233;51.560;9.986;2023-04-24T16:09:54;9.50;99.90
12335;DHT22;6233;51.560;9.986;2023-04-24T16:12:56;9.60;99.90
12335;DHT22;6233;51.560;9.986;2023-04-24T16:15:58;9.60;99.90
12335;DHT22;6233;51.560;9.986;2023-04-24T16:19:00;9.50;99.90
12335;DHT22;6233;51.560;9.986;2023-04-24T16:22:02;9.40;99.90
12335;DHT22;6233;51.560;9.986;2023-04-24T16:25:04;9.40;99.90
12335;DHT22;6233;51.560;9.986;2023-04-24T16:28:06;9.50;99.90
12335;DHT22;6233;51.560;9.986;2023-04-24T16:31:08;9.50;99.90
12335;DHT22;6233;51.560;9.986;2023-04-24T16:34:10;9.50;99.90
12335;DHT22;6233;51.560;9.986;2023-04-24T16:37:12;9.50;99.90
12335;DHT22;6233;51.560;9.986;2023-04-24T16:40:13;9.40;99.90
12335;DHT22;6233;51.560;9.986;2023-04-24T16:43:15;9.40;99.90
12335;DHT22;6233;51.560;9.986;2023-04-24T16:46:17;9.40;99.90
12335;DHT22;6233;51.560;9.986;2023-04-24T16:49:19;9.40;99.90
12335;DHT22;6233;51.560;9.986;2023-04-24T16:52:20;9.30;99.90
12335;DHT22;6233;51.560;9.986;2023-04-24T16:55:22;9.30;99.90
12335;DHT22;6233;51.560;9.986;2023-04-24T16:58:33;9.30;99.90
12335;DHT22;6233;51.560;9.986;2023-04-24T17:01:35;9.30;99.90
12335;DHT22;6233;51.560;9.986;2023-04-24T17:04:37;9.30;99.90
12335;DHT22;6233;51.560;9.986;2023-04-24T17:07:39;9.30;99.90
12335;DHT22;6233;51.560;9.986;2023-04-24T17:10:41;9.30;99.90
12335;DHT22;6233;51.560;9.986;2023-04-24T17:13:43;9.30;99.90
12335;DHT22;6233;51.560;9.986;2023-04-24T17:16:45;9.30;99.90
12335;DHT22;6233;51.560;9.986;2023-04-24T17:19:47;9.30;99.90
12335;DHT22;6233;51.560;9.986;2023-04-24T17:22:48;9.40;99.90
12335;DHT22;6233;51.560;9.986;2023-04-24T17:25:50;9.40;99.90
12335;DHT22;6233;51.560;9.986;2023-04-24T17:28:53;9.40;99.90
12335;DHT22;6233;51.560;9.986;2023-04-24T17:31:55;9.30;99.90
12335;DHT22;6233;51.560;9.986;2023-04-24T17:34:57;9.40;99.90
12335;DHT22;6233;51.560;9.986;2023-04-24T17:37:59;9.40;99.90
12335;DHT22;6233;51.560;9.986;2023-04-24T17:41:00;9.40;99.90
12335;DHT22;6233;51.560;9.986;2023-04-24T17:44:02;9.40;99.90
12335;DHT22;6233;51.560;9.986;2023-04-24T17:47:04;9.30;99.90
12335;DHT22;6233;51.560;9.986;2023-04-24T17:50:06;9.20;99.90
12335;DHT22;6233;51.560;9.986;2023-04-24T17:53:08;9.20;99.90
12335;DHT22;6233;51.560;9.986;2023-04-24T17:56:11;9.20;99.90
12335;DHT22;6233;51.560;9.986;2023-04-24T17:59:15;9.30;99.90
12335;DHT22;6233;51.560;9.986;2023-04-24T18:02:17;9.20;99.90
12335;DHT22;6233;51.560;9.986;2023-04-24T18:05:19;9.30;99.90
12335;DHT22;6233;51.560;9.986;2023-04-24T18:08:21;9.30;99.90
12335;DHT22;6233;51.560;9.986;2023-04-24T18:11:23;9.20;99.90
12335;DHT22;6233;51.560;9.986;2023-04-24T18:14:25;9.10;99.90
12335;DHT22;6233;51.560;9.986;2023-04-24T18:17:29;9.00;99.90
12335;DHT22;6233;51.560;9.986;2023-04-24T18:20:30;8.90;99.90
12335;DHT22;6233;51.560;9.986;2023-04-24T18:23:32;8.80;99.90
12335;DHT22;6233;51.560;9.986;2023-04-24T18:26:35;8.70;99.90
12335;DHT22;6233;51.560;9.986;2023-04-24T18:29:37;8.70;99.90
12335;DHT22;6233;51.560;9.986;2023-04-24T18:32:39;8.60;99.90
12335;DHT22;6233;51.560;9.986;2023-04-24T18:35:44;8.50;99.90
12335;DHT22;6233;51.560;9.986;2023-04-24T18:38:46;8.40;99.90
12335;DHT22;6233;51.560;9.986;2023-04-24T18:41:48;8.30;99.90
12335;DHT22;6233;51.560;9.986;2023-04-24T18:44:50;8.30;99.90
12335;DHT22;6233;51.560;9.986;2023-04-24T18:47:52;8.20;99.90
12335;DHT22;6233;51.560;9.986;2023-04-24T18:50:53;8.20;99.90
12335;DHT22;6233;51.560;9.986;2023-04-24T18:53:55;8.10;99.90
12335;DHT22;6233;51.560;9.986;2023-04-24T18:56:57;8.10;99.90
12335;DHT22;6233;51.560;9.986;2023-04-24T18:59:59;8.10;99.90
12335;DHT22;6233;51.560;9.986;2023-04-24T19:03:00;8.00;99.90
12335;DHT22;6233;51.560;9.986;2023-04-24T19:06:03;8.00;99.90
12335;DHT22;6233;51.560;9.986;2023-04-24T19:09:04;8.00;99.90
12335;DHT22;6233;51.560;9.986;2023-04-24T19:12:06;8.00;99.90
12335;DHT22;6233;51.560;9.986;2023-04-24T19:15:08;8.00;99.90
12335;DHT22;6233;51.560;9.986;2023-04-24T19:18:13;8.10;99.90
12335;DHT22;6233;51.560;9.986;2023-04-24T19:21:17;8.10;99.90
12335;DHT22;6233;51.560;9.986;2023-04-24T19:24:31;8.20;99.90
12335;DHT22;6233;51.560;9.986;2023-04-24T19:27:36;8.20;99.90
12335;DHT22;6233;51.560;9.986;2023-04-24T19:30:38;8.20;99.90
12335;DHT22;6233;51.560;9.986;2023-04-24T19:33:41;8.20;99.90
12335;DHT22;6233;51.560;9.986;2023-04-24T19:36:42;8.20;99.90
12335;DHT22;6233;51.560;9.986;2023-04-24T19:39:44;8.20;99.90
12335;DHT22;6233;51.560;9.986;2023-04-24T19:42:46;8.20;99.90
12335;DHT22;6233;51.560;9.986;2023-04-24T19:45:51;8.20;99.90
12335;DHT22;6233;51.560;9.986;2023-04-24T19:48:53;8.20;99.90
12335;DHT22;6233;51.560;9.986;2023-04-24T19:51:54;8.10;99.90